createdAt,value
2022-09-28T00:00:00.937Z,197.18
2022-09-28T00:00:46.098Z,192.25
2022-09-28T00:01:30.912Z,194.22
2022-09-28T00:02:16.321Z,187.32
2022-09-28T00:03:01.417Z,189.29
2022-09-28T00:03:46.625Z,194.22
2022-09-28T00:04:31.478Z,191.56
2022-09-28T00:05:16.748Z,191.27
2022-09-28T00:06:01.294Z,184.36
2022-09-28T00:06:46.550Z,191.27
2022-09-28T00:07:31.340Z,191.27
2022-09-28T00:08:16.574Z,192.25
2022-09-28T00:09:01.852Z,185.66
2022-09-28T00:09:46.678Z,188.97
2022-09-28T00:10:31.827Z,193.12
2022-09-28T00:11:17.420Z,187.98
2022-09-28T00:12:02.483Z,187.79
2022-09-28T00:12:47.101Z,191.92
2022-09-28T00:13:32.157Z,191.92
2022-09-28T00:14:17.116Z,187.24
2022-09-28T00:15:02.779Z,187.24
2022-09-28T00:15:47.137Z,185.66
2022-09-28T00:16:32.278Z,187.79
2022-09-28T00:17:17.436Z,168.32
2022-09-28T00:18:02.394Z,177.80
2022-09-28T00:18:47.810Z,176.82
2022-09-28T00:19:32.917Z,172.89
2022-09-28T00:20:17.766Z,172.89
2022-09-28T00:21:03.539Z,172.89
2022-09-28T00:21:47.890Z,185.03
2022-09-28T00:22:32.939Z,203.73
2022-09-28T00:23:18.010Z,203.73
2022-09-28T00:24:03.354Z,203.73
2022-09-28T00:24:47.983Z,219.48
2022-09-28T00:25:32.999Z,219.06
2022-09-28T00:26:18.479Z,229.87
2022-09-28T00:27:03.480Z,236.75
2022-09-28T00:27:48.315Z,234.78
2022-09-28T00:28:33.288Z,246.57
2022-09-28T00:29:18.546Z,234.78
2022-09-28T00:30:03.820Z,234.78
2022-09-28T00:30:48.664Z,237.73
2022-09-28T00:31:33.599Z,239.69
2022-09-28T00:32:18.685Z,236.75
2022-09-28T00:33:03.933Z,235.76
2022-09-28T00:33:48.492Z,228.89
2022-09-28T00:34:33.856Z,217.10
2022-09-28T00:35:18.591Z,218.61
2022-09-28T00:36:04.053Z,214.69
2022-09-28T00:36:48.702Z,216.65
2022-09-28T00:37:34.312Z,218.61
2022-09-28T00:38:20.760Z,216.65
2022-09-28T00:39:04.177Z,197.04
2022-09-28T00:39:49.030Z,177.44
2022-09-28T00:40:34.237Z,181.36
2022-09-28T00:41:19.145Z,180.38
2022-09-28T00:42:04.302Z,177.44
2022-09-28T00:42:49.466Z,163.71
2022-09-28T00:43:34.727Z,168.61
2022-09-28T00:44:19.502Z,159.79
2022-09-28T00:45:04.507Z,175.48
2022-09-28T00:45:49.417Z,176.46
2022-09-28T00:46:34.745Z,165.67
2022-09-28T00:47:19.917Z,160.77
2022-09-28T00:48:04.649Z,166.65
2022-09-28T00:48:49.816Z,160.77
2022-09-28T00:49:35.076Z,160.77
2022-09-28T00:50:20.023Z,210.29
2022-09-28T00:51:05.730Z,210.29
2022-09-28T00:51:50.166Z,233.82
2022-09-28T00:52:34.997Z,227.43
2022-09-28T00:53:19.940Z,227.43
2022-09-28T00:54:05.002Z,156.85
2022-09-28T00:54:50.173Z,156.85
2022-09-28T00:55:35.249Z,150.97
2022-09-28T00:56:20.267Z,143.59
2022-09-28T00:57:05.230Z,130.38
2022-09-28T00:57:50.138Z,130.38
2022-09-28T00:58:35.540Z,130.38
2022-09-28T00:59:20.602Z,130.38
2022-09-28T01:00:05.659Z,130.38
2022-09-28T01:00:50.853Z,130.38
2022-09-28T01:01:36.081Z,130.38
2022-09-28T01:02:20.830Z,130.38
2022-09-28T01:03:06.182Z,130.38
2022-09-28T01:03:51.763Z,124.50
2022-09-28T01:04:35.997Z,122.26
2022-09-28T01:05:20.949Z,122.26
2022-09-28T01:06:06.002Z,122.26
2022-09-28T01:06:51.200Z,122.26
2022-09-28T01:07:36.119Z,122.26
2022-09-28T01:08:21.373Z,122.26
2022-09-28T01:09:06.437Z,122.26
2022-09-28T01:09:51.591Z,122.26
2022-09-28T01:10:36.754Z,122.26
2022-09-28T01:11:21.500Z,95.08
2022-09-28T01:12:06.251Z,95.08
2022-09-28T01:12:51.455Z,83.14
2022-09-28T01:13:36.471Z,83.14
2022-09-28T01:14:21.177Z,174.10
2022-09-28T01:15:06.679Z,87.05
2022-09-28T01:15:51.827Z,158.45
2022-09-28T01:16:36.962Z,167.25
2022-09-28T01:17:21.747Z,174.10
2022-09-28T01:18:06.719Z,161.39
2022-09-28T01:18:51.737Z,171.17
2022-09-28T01:19:37.227Z,158.45
2022-09-28T01:20:22.080Z,163.34
2022-09-28T01:21:07.135Z,167.85
2022-09-28T01:21:52.334Z,178.99
2022-09-28T01:22:37.259Z,162.36
2022-09-28T01:23:22.777Z,142.80
2022-09-28T01:24:07.867Z,177.55
2022-09-28T01:24:52.417Z,178.01
2022-09-28T01:25:37.575Z,188.77
2022-09-28T01:26:22.342Z,178.01
2022-09-28T01:27:07.479Z,178.01
2022-09-28T01:27:52.435Z,180.95
2022-09-28T01:28:37.694Z,178.92
2022-09-28T01:29:22.794Z,209.31
2022-09-28T01:30:07.932Z,175.05
2022-09-28T01:30:52.790Z,174.10
2022-09-28T01:31:37.767Z,182.90
2022-09-28T01:32:22.772Z,183.88
2022-09-28T01:33:08.050Z,178.01
2022-09-28T01:33:52.986Z,181.93
2022-09-28T01:34:38.046Z,205.03
2022-09-28T01:35:22.896Z,227.90
2022-09-28T01:36:08.569Z,237.68
2022-09-28T01:36:53.110Z,227.90
2022-09-28T01:37:38.474Z,223.00
2022-09-28T01:38:23.645Z,216.16
2022-09-28T01:39:08.394Z,185.84
2022-09-28T01:39:53.544Z,193.66
2022-09-28T01:40:38.464Z,200.51
2022-09-28T01:41:23.457Z,192.68
2022-09-28T01:42:09.433Z,176.02
2022-09-28T01:42:53.976Z,175.08
2022-09-28T01:43:38.722Z,178.01
2022-09-28T01:44:23.881Z,172.14
2022-09-28T01:45:08.763Z,172.14
2022-09-28T01:45:54.147Z,187.33
2022-09-28T01:46:38.844Z,176.60
2022-09-28T01:47:24.720Z,178.55
2022-09-28T01:48:09.168Z,168.79
2022-09-28T01:48:54.115Z,175.62
2022-09-28T01:49:38.970Z,167.82
2022-09-28T01:50:24.227Z,167.82
2022-09-28T01:51:09.180Z,166.84
2022-09-28T01:51:54.667Z,164.41
2022-09-28T01:52:39.200Z,166.84
2022-09-28T01:53:24.555Z,166.84
2022-09-28T01:54:09.413Z,171.72
2022-09-28T01:54:54.401Z,157.64
2022-09-28T01:55:39.258Z,162.94
2022-09-28T01:56:24.680Z,149.28
2022-09-28T01:57:09.748Z,136.59
2022-09-28T01:57:54.507Z,136.59
2022-09-28T01:58:39.789Z,166.84
2022-09-28T01:59:25.107Z,162.48
2022-09-28T02:00:09.774Z,160.01
2022-09-28T02:00:55.293Z,160.01
2022-09-28T02:01:40.003Z,162.94
2022-09-28T02:02:25.159Z,158.06
2022-09-28T02:03:09.828Z,167.82
2022-09-28T02:03:55.088Z,167.82
2022-09-28T02:04:39.877Z,167.82
2022-09-28T02:05:25.154Z,167.82
2022-09-28T02:06:10.111Z,164.89
2022-09-28T02:06:55.469Z,162.88
2022-09-28T02:07:40.216Z,165.87
2022-09-28T02:08:25.414Z,165.87
2022-09-28T02:09:10.547Z,142.45
2022-09-28T02:09:55.084Z,91.56
2022-09-28T02:10:40.343Z,120.01
2022-09-28T02:11:25.639Z,126.84
2022-09-28T02:12:10.666Z,122.94
2022-09-28T02:12:55.840Z,122.94
2022-09-28T02:13:40.687Z,147.33
2022-09-28T02:14:25.857Z,143.42
2022-09-28T02:15:10.691Z,116.11
2022-09-28T02:15:55.817Z,116.11
2022-09-28T02:16:41.300Z,153.18
2022-09-28T02:17:26.148Z,153.18
2022-09-28T02:18:11.066Z,147.33
2022-09-28T02:18:56.069Z,146.50
2022-09-28T02:19:41.739Z,145.38
2022-09-28T02:20:26.183Z,83.91
2022-09-28T02:21:11.851Z,197.09
2022-09-28T02:21:56.315Z,204.89
2022-09-28T02:22:41.588Z,198.06
2022-09-28T02:23:26.507Z,222.45
2022-09-28T02:24:11.462Z,240.02
2022-09-28T02:24:56.421Z,206.84
2022-09-28T02:25:41.842Z,210.75
2022-09-28T02:26:26.761Z,208.79
2022-09-28T02:27:11.653Z,211.72
2022-09-28T02:27:56.639Z,208.79
2022-09-28T02:28:41.699Z,127.81
2022-09-28T02:29:27.267Z,128.79
2022-09-28T02:30:12.309Z,124.89
2022-09-28T02:30:57.072Z,101.47
2022-09-28T02:31:41.975Z,82.89
2022-09-28T02:32:26.989Z,89.76
2022-09-28T02:33:12.037Z,79.03
2022-09-28T02:33:57.055Z,80.01
2022-09-28T02:34:42.048Z,75.18
2022-09-28T02:35:27.510Z,78.05
2022-09-28T02:36:12.224Z,77.10
2022-09-28T02:36:57.535Z,79.56
2022-09-28T02:37:42.479Z,77.62
2022-09-28T02:38:27.362Z,76.65
2022-09-28T02:39:12.448Z,76.65
2022-09-28T02:39:57.327Z,72.77
2022-09-28T02:40:42.509Z,75.68
2022-09-28T02:41:27.664Z,74.71
2022-09-28T02:42:12.920Z,81.50
2022-09-28T02:42:58.003Z,77.62
2022-09-28T02:43:42.887Z,77.62
2022-09-28T02:44:27.987Z,90.23
2022-09-28T02:45:12.945Z,80.53
2022-09-28T02:45:58.349Z,77.62
2022-09-28T02:46:43.075Z,77.62
2022-09-28T02:47:28.229Z,80.53
2022-09-28T02:48:13.265Z,80.53
2022-09-28T02:49:17.480Z,81.50
2022-09-28T02:49:43.891Z,117.40
2022-09-28T02:50:28.341Z,91.20
2022-09-28T02:51:13.628Z,82.89
2022-09-28T02:51:58.665Z,77.62
2022-09-28T02:52:43.608Z,205.68
2022-09-28T02:53:28.658Z,125.16
2022-09-28T02:54:17.980Z,148.44
2022-09-28T02:54:58.673Z,232.85
2022-09-28T02:55:43.647Z,235.17
2022-09-28T02:56:28.782Z,228.97
2022-09-28T02:57:13.739Z,223.60
2022-09-28T02:57:59.004Z,224.12
2022-09-28T02:58:43.917Z,224.57
2022-09-28T02:59:29.648Z,222.18
2022-09-28T03:00:14.139Z,202.77
2022-09-28T03:00:59.118Z,205.68
2022-09-28T03:01:44.347Z,206.65
2022-09-28T03:02:29.360Z,200.83
2022-09-28T03:03:14.195Z,223.15
2022-09-28T03:03:59.363Z,247.82
2022-09-28T03:04:44.510Z,227.03
2022-09-28T03:05:29.177Z,225.09
2022-09-28T03:06:14.523Z,229.94
2022-09-28T03:06:59.889Z,235.76
2022-09-28T03:07:44.363Z,203.74
2022-09-28T03:08:33.064Z,195.98
2022-09-28T03:09:14.896Z,190.16
2022-09-28T03:09:59.698Z,196.95
2022-09-28T03:10:44.625Z,195.01
2022-09-28T03:11:29.725Z,238.67
2022-09-28T03:12:15.036Z,238.67
2022-09-28T03:13:00.344Z,232.85
2022-09-28T03:13:44.982Z,232.85
2022-09-28T03:14:30.033Z,244.49
2022-09-28T03:15:15.030Z,214.42
2022-09-28T03:16:00.121Z,226.06
2022-09-28T03:16:45.084Z,239.64
2022-09-28T03:17:30.386Z,263.90
2022-09-28T03:18:15.298Z,243.52
2022-09-28T03:19:01.404Z,241.58
2022-09-28T03:19:45.547Z,256.14
2022-09-28T03:20:31.207Z,281.36
2022-09-28T03:21:15.644Z,199.86
2022-09-28T03:22:01.319Z,241.58
2022-09-28T03:23:00.295Z,280.39
2022-09-28T03:23:30.446Z,220.24
2022-09-28T03:24:15.941Z,223.15
2022-09-28T03:25:01.056Z,228.00
2022-09-28T03:25:45.983Z,221.21
2022-09-28T03:26:30.838Z,217.97
2022-09-28T03:27:15.897Z,213.45
2022-09-28T03:28:01.260Z,221.21
2022-09-28T03:28:46.216Z,219.27
2022-09-28T03:29:31.134Z,219.75
2022-09-28T03:30:16.117Z,223.15
2022-09-28T03:31:01.486Z,221.21
2022-09-28T03:31:46.374Z,224.12
2022-09-28T03:32:30.985Z,238.67
2022-09-28T03:33:16.382Z,244.49
2022-09-28T03:34:01.235Z,232.85
2022-09-28T03:34:46.456Z,221.21
2022-09-28T03:35:31.108Z,242.55
2022-09-28T03:36:16.570Z,255.16
2022-09-28T03:37:01.634Z,235.76
2022-09-28T03:37:46.480Z,233.82
2022-09-28T03:38:32.160Z,217.01
2022-09-28T03:39:16.895Z,232.85
2022-09-28T03:40:01.954Z,237.70
2022-09-28T03:40:46.657Z,231.88
2022-09-28T03:41:31.861Z,237.70
2022-09-28T03:42:16.612Z,220.24
2022-09-28T03:43:01.973Z,210.54
2022-09-28T03:43:46.810Z,172.52
2022-09-28T03:44:32.407Z,222.18
2022-09-28T03:45:16.841Z,230.91
2022-09-28T03:46:03.032Z,234.79
2022-09-28T03:46:47.056Z,234.79
2022-09-28T03:47:32.214Z,233.82
2022-09-28T03:48:19.493Z,234.79
2022-09-28T03:49:02.410Z,229.94
2022-09-28T03:49:47.123Z,239.64
2022-09-28T03:50:32.209Z,236.73
2022-09-28T03:51:17.494Z,233.82
2022-09-28T03:52:02.460Z,235.76
2022-09-28T03:52:47.607Z,237.18
2022-09-28T03:53:32.573Z,221.47
2022-09-28T03:54:17.512Z,231.14
2022-09-28T03:55:02.773Z,244.68
2022-09-28T03:55:47.651Z,257.26
2022-09-28T03:56:32.376Z,235.01
2022-09-28T03:57:17.226Z,232.11
2022-09-28T03:58:03.265Z,232.11
2022-09-28T03:58:47.573Z,222.18
2022-09-28T03:59:32.909Z,201.16
2022-09-28T04:00:18.174Z,201.16
2022-09-28T04:01:02.818Z,263.90
2022-09-28T04:01:47.794Z,217.60
2022-09-28T04:02:33.106Z,191.13
2022-09-28T04:03:17.985Z,180.46
2022-09-28T04:04:03.144Z,198.89
2022-09-28T04:04:48.513Z,198.89
2022-09-28T04:05:33.106Z,214.42
2022-09-28T04:06:18.219Z,223.15
2022-09-28T04:07:03.475Z,226.06
2022-09-28T04:07:48.559Z,220.24
2022-09-28T04:08:33.737Z,220.24
2022-09-28T04:09:18.695Z,237.70
2022-09-28T04:10:03.577Z,223.15
2022-09-28T04:10:48.487Z,195.36
2022-09-28T04:11:47.652Z,162.48
2022-09-28T04:12:18.666Z,144.10
2022-09-28T04:13:03.832Z,76.40
2022-09-28T04:13:48.980Z,84.14
2022-09-28T04:14:34.037Z,128.63
2022-09-28T04:15:18.952Z,83.17
2022-09-28T04:16:03.998Z,90.91
2022-09-28T04:16:48.893Z,105.42
2022-09-28T04:17:37.785Z,103.48
2022-09-28T04:18:19.222Z,99.61
2022-09-28T04:19:04.195Z,113.15
2022-09-28T04:19:49.332Z,93.81
2022-09-28T04:20:34.320Z,90.91
2022-09-28T04:21:19.242Z,90.91
2022-09-28T04:22:04.410Z,127.66
2022-09-28T04:22:49.554Z,89.94
2022-09-28T04:23:34.651Z,89.94
2022-09-28T04:24:19.671Z,88.98
2022-09-28T04:25:04.725Z,98.65
2022-09-28T04:25:49.687Z,95.75
2022-09-28T04:26:34.753Z,96.05
2022-09-28T04:27:19.182Z,84.14
2022-09-28T04:28:05.211Z,203.10
2022-09-28T04:28:49.803Z,193.43
2022-09-28T04:29:34.741Z,131.53
2022-09-28T04:30:20.124Z,92.84
2022-09-28T04:31:05.190Z,96.71
2022-09-28T04:31:50.189Z,93.81
2022-09-28T04:32:35.091Z,95.75
2022-09-28T04:33:20.243Z,92.84
2022-09-28T04:34:05.501Z,90.91
2022-09-28T04:34:50.364Z,86.07
2022-09-28T04:35:35.415Z,86.07
2022-09-28T04:36:20.575Z,95.75
2022-09-28T04:37:05.833Z,87.04
2022-09-28T04:37:50.603Z,81.24
2022-09-28T04:38:51.342Z,81.24
2022-09-28T04:39:20.555Z,81.24
2022-09-28T04:40:05.856Z,77.37
2022-09-28T04:40:50.962Z,81.24
2022-09-28T04:41:36.215Z,83.17
2022-09-28T04:42:21.024Z,80.27
2022-09-28T04:43:06.382Z,79.30
2022-09-28T04:43:51.350Z,76.40
2022-09-28T04:44:36.298Z,78.34
2022-09-28T04:45:21.251Z,84.14
2022-09-28T04:46:06.399Z,81.24
2022-09-28T04:46:51.358Z,79.30
2022-09-28T04:47:36.322Z,83.17
2022-09-28T04:48:21.269Z,85.78
2022-09-28T04:49:06.529Z,86.74
2022-09-28T04:49:51.693Z,75.18
2022-09-28T04:50:36.341Z,81.92
2022-09-28T04:51:21.701Z,73.25
2022-09-28T04:52:07.319Z,77.37
2022-09-28T04:52:51.612Z,76.82
2022-09-28T04:53:37.078Z,72.98
2022-09-28T04:54:21.667Z,73.94
2022-09-28T04:55:06.911Z,76.82
2022-09-28T04:55:52.553Z,92.18
2022-09-28T04:56:36.901Z,81.92
2022-09-28T04:57:22.265Z,98.31
2022-09-28T04:58:07.114Z,85.78
2022-09-28T04:58:52.956Z,77.10
2022-09-28T04:59:37.257Z,80.96
2022-09-28T05:00:22.173Z,74.21
2022-09-28T05:01:07.148Z,75.18
2022-09-28T05:01:52.562Z,70.36
2022-09-28T05:02:37.727Z,66.50
2022-09-28T05:03:22.500Z,66.73
2022-09-28T05:04:07.667Z,66.73
2022-09-28T05:04:52.615Z,72.29
2022-09-28T05:05:37.775Z,70.60
2022-09-28T05:06:22.267Z,68.43
2022-09-28T05:07:07.991Z,198.54
2022-09-28T05:07:53.150Z,191.80
2022-09-28T05:08:37.606Z,134.93
2022-09-28T05:09:22.961Z,119.51
2022-09-28T05:10:08.011Z,66.73
2022-09-28T05:10:52.858Z,70.60
2022-09-28T05:11:37.919Z,73.50
2022-09-28T05:12:22.982Z,73.50
2022-09-28T05:13:08.317Z,73.50
2022-09-28T05:13:53.051Z,129.60
2022-09-28T05:14:37.937Z,154.74
2022-09-28T05:15:23.444Z,141.20
2022-09-28T05:16:08.193Z,84.14
2022-09-28T05:16:53.399Z,110.25
2022-09-28T05:17:38.232Z,81.24
2022-09-28T05:18:23.528Z,81.24
2022-09-28T05:19:08.595Z,84.14
2022-09-28T05:19:53.647Z,79.30
2022-09-28T05:20:38.597Z,77.37
2022-09-28T05:21:23.345Z,75.18
2022-09-28T05:22:09.200Z,76.14
2022-09-28T05:22:53.562Z,77.10
2022-09-28T05:23:38.838Z,77.10
2022-09-28T05:24:23.979Z,80.00
2022-09-28T05:25:09.256Z,75.18
2022-09-28T05:25:54.155Z,75.18
2022-09-28T05:26:39.045Z,76.14
2022-09-28T05:27:24.000Z,91.88
2022-09-28T05:28:08.953Z,70.36
2022-09-28T05:28:54.420Z,75.18
2022-09-28T05:29:39.268Z,79.03
2022-09-28T05:30:24.127Z,89.63
2022-09-28T05:31:10.080Z,89.63
2022-09-28T05:31:54.392Z,70.36
2022-09-28T05:32:39.289Z,79.03
2022-09-28T05:33:26.303Z,68.86
2022-09-28T05:34:10.025Z,68.86
2022-09-28T05:34:54.484Z,86.07
2022-09-28T05:35:39.499Z,82.89
2022-09-28T05:36:24.684Z,91.56
2022-09-28T05:37:09.632Z,80.96
2022-09-28T05:37:54.916Z,79.03
2022-09-28T05:38:39.954Z,81.92
2022-09-28T05:39:24.901Z,98.31
2022-09-28T05:40:09.857Z,80.96
2022-09-28T05:40:54.982Z,81.92
2022-09-28T05:41:40.072Z,84.82
2022-09-28T05:42:25.029Z,76.14
2022-09-28T05:43:09.984Z,82.89
2022-09-28T05:43:55.057Z,85.78
2022-09-28T05:44:40.309Z,81.92
2022-09-28T05:45:25.446Z,80.96
2022-09-28T05:46:10.466Z,80.96
2022-09-28T05:46:55.264Z,81.92
2022-09-28T05:47:40.330Z,92.53
2022-09-28T05:48:25.479Z,81.92
2022-09-28T05:49:10.431Z,80.00
2022-09-28T05:49:55.794Z,83.85
2022-09-28T05:50:40.649Z,78.07
2022-09-28T05:51:25.813Z,80.27
2022-09-28T05:52:11.385Z,80.27
2022-09-28T05:52:56.122Z,80.27
2022-09-28T05:53:41.387Z,78.34
2022-09-28T05:54:26.948Z,76.14
2022-09-28T05:55:11.190Z,74.21
2022-09-28T05:55:56.249Z,73.25
2022-09-28T05:56:41.000Z,77.10
2022-09-28T05:57:26.262Z,78.07
2022-09-28T05:58:11.536Z,75.44
2022-09-28T05:58:56.408Z,71.57
2022-09-28T05:59:41.594Z,78.07
2022-09-28T06:00:26.686Z,77.10
2022-09-28T06:01:11.497Z,79.03
2022-09-28T06:01:56.392Z,77.10
2022-09-28T06:02:41.947Z,70.36
2022-09-28T06:03:26.744Z,77.10
2022-09-28T06:04:11.882Z,80.96
2022-09-28T06:04:56.720Z,74.21
2022-09-28T06:05:41.987Z,85.78
2022-09-28T06:06:26.832Z,78.07
2022-09-28T06:07:11.803Z,79.03
2022-09-28T06:07:57.052Z,76.14
2022-09-28T06:08:42.104Z,74.21
2022-09-28T06:09:27.260Z,74.90
2022-09-28T06:10:12.334Z,72.02
2022-09-28T06:10:57.311Z,74.90
2022-09-28T06:11:42.438Z,74.90
2022-09-28T06:12:27.283Z,72.98
2022-09-28T06:13:12.557Z,70.10
2022-09-28T06:13:57.259Z,72.02
2022-09-28T06:14:42.561Z,71.06
2022-09-28T06:15:27.712Z,72.98
2022-09-28T06:16:12.690Z,177.64
2022-09-28T06:16:57.885Z,184.36
2022-09-28T06:17:42.779Z,120.03
2022-09-28T06:18:27.939Z,145.54
2022-09-28T06:19:12.804Z,214.93
2022-09-28T06:19:57.743Z,81.92
2022-09-28T06:20:42.703Z,79.03
2022-09-28T06:21:28.278Z,79.03
2022-09-28T06:22:12.859Z,73.25
2022-09-28T06:22:57.887Z,73.50
2022-09-28T06:23:46.867Z,70.60
2022-09-28T06:24:28.709Z,70.60
2022-09-28T06:25:13.243Z,66.73
2022-09-28T06:25:58.381Z,133.46
2022-09-28T06:26:43.356Z,75.44
2022-09-28T06:27:28.616Z,79.03
2022-09-28T06:28:13.904Z,72.98
2022-09-28T06:28:58.629Z,74.21
2022-09-28T06:29:43.505Z,73.25
2022-09-28T06:30:28.683Z,75.18
2022-09-28T06:31:13.689Z,74.21
2022-09-28T06:31:58.450Z,76.14
2022-09-28T06:32:43.652Z,86.74
2022-09-28T06:33:28.757Z,72.29
2022-09-28T06:34:14.061Z,72.29
2022-09-28T06:34:58.565Z,73.25
2022-09-28T06:35:43.893Z,73.25
2022-09-28T06:36:28.677Z,94.78
2022-09-28T06:37:13.999Z,156.68
2022-09-28T06:37:58.914Z,156.14
2022-09-28T06:38:43.952Z,78.74
2022-09-28T06:39:28.904Z,92.18
2022-09-28T06:40:13.896Z,79.70
2022-09-28T06:40:59.060Z,86.74
2022-09-28T06:41:44.897Z,122.40
2022-09-28T06:42:29.131Z,136.35
2022-09-28T06:43:14.259Z,138.27
2022-09-28T06:43:59.093Z,141.15
2022-09-28T06:44:44.220Z,154.60
2022-09-28T06:45:29.574Z,119.51
2022-09-28T06:46:14.626Z,103.13
2022-09-28T06:46:59.669Z,106.02
2022-09-28T06:47:45.084Z,96.38
2022-09-28T06:48:29.275Z,88.67
2022-09-28T06:49:18.633Z,108.91
2022-09-28T06:49:59.493Z,88.67
2022-09-28T06:50:44.954Z,289.14
2022-09-28T06:51:30.223Z,306.49
2022-09-28T06:52:15.029Z,148.43
2022-09-28T06:53:00.109Z,151.32
2022-09-28T06:53:45.079Z,151.84
2022-09-28T06:54:31.122Z,112.19
2022-09-28T06:55:15.336Z,106.98
2022-09-28T06:56:00.477Z,103.13
2022-09-28T06:56:45.407Z,100.24
2022-09-28T06:57:30.630Z,103.13
2022-09-28T06:58:15.520Z,101.20
2022-09-28T06:59:00.526Z,101.78
2022-09-28T06:59:45.667Z,99.86
2022-09-28T07:00:31.161Z,95.06
2022-09-28T07:01:15.877Z,104.67
2022-09-28T07:02:01.206Z,95.42
2022-09-28T07:02:45.907Z,95.42
2022-09-28T07:03:31.756Z,93.49
2022-09-28T07:04:16.075Z,113.73
2022-09-28T07:05:01.189Z,101.20
2022-09-28T07:05:46.912Z,98.31
2022-09-28T07:06:31.140Z,95.42
2022-09-28T07:07:16.410Z,97.34
2022-09-28T07:08:02.086Z,98.31
2022-09-28T07:08:49.676Z,96.38
2022-09-28T07:09:32.819Z,109.87
2022-09-28T07:10:16.320Z,104.09
2022-09-28T07:11:01.583Z,112.77
2022-09-28T07:11:46.638Z,106.02
2022-09-28T07:12:31.702Z,106.98
2022-09-28T07:13:30.693Z,104.09
2022-09-28T07:14:02.225Z,117.58
2022-09-28T07:14:47.694Z,155.17
2022-09-28T07:15:31.740Z,150.35
2022-09-28T07:16:16.826Z,149.39
2022-09-28T07:17:13.147Z,125.30
2022-09-28T07:17:56.865Z,96.38
2022-09-28T07:18:32.273Z,92.84
2022-09-28T07:19:17.312Z,91.56
2022-09-28T07:20:12.473Z,90.60
2022-09-28T07:20:52.665Z,88.67
2022-09-28T07:21:32.293Z,111.80
2022-09-28T07:22:19.280Z,159.03
2022-09-28T07:23:14.026Z,147.46
2022-09-28T07:23:52.602Z,147.46
2022-09-28T07:24:32.594Z,115.66
2022-09-28T07:25:17.449Z,101.20
2022-09-28T07:26:02.836Z,99.27
2022-09-28T07:26:47.719Z,103.13
2022-09-28T07:27:32.648Z,101.20
2022-09-28T07:28:17.678Z,99.27
2022-09-28T07:29:02.840Z,118.55
2022-09-28T07:29:47.990Z,106.02
2022-09-28T07:30:32.866Z,107.95
2022-09-28T07:31:17.952Z,103.13
2022-09-28T07:32:02.861Z,104.09
2022-09-28T07:32:47.846Z,104.09
2022-09-28T07:33:32.684Z,99.27
2022-09-28T07:34:18.053Z,100.24
2022-09-28T07:35:03.624Z,103.13
2022-09-28T07:35:48.147Z,101.20
2022-09-28T07:36:33.500Z,102.16
2022-09-28T07:37:18.257Z,102.16
2022-09-28T07:38:03.319Z,99.27
2022-09-28T07:38:48.161Z,99.27
2022-09-28T07:39:33.178Z,96.38
2022-09-28T07:40:18.635Z,97.34
2022-09-28T07:41:03.797Z,101.20
2022-09-28T07:41:48.486Z,99.27
2022-09-28T07:42:33.193Z,95.42
2022-09-28T07:43:18.286Z,98.31
2022-09-28T07:44:03.776Z,103.13
2022-09-28T07:44:48.818Z,103.13
2022-09-28T07:45:33.803Z,103.13
2022-09-28T07:46:18.639Z,101.20
2022-09-28T07:47:04.189Z,105.06
2022-09-28T07:47:49.186Z,104.09
2022-09-28T07:48:33.891Z,103.48
2022-09-28T07:49:19.105Z,136.37
2022-09-28T07:50:04.214Z,292.07
2022-09-28T07:50:49.367Z,313.35
2022-09-28T07:51:33.911Z,272.73
2022-09-28T07:52:19.276Z,307.55
2022-09-28T07:53:04.555Z,304.65
2022-09-28T07:53:49.385Z,281.44
2022-09-28T07:54:34.241Z,217.60
2022-09-28T07:55:19.363Z,95.75
2022-09-28T07:56:04.662Z,96.71
2022-09-28T07:56:49.512Z,97.68
2022-09-28T07:57:34.364Z,95.75
2022-09-28T07:58:19.730Z,98.65
2022-09-28T07:59:04.682Z,95.75
2022-09-28T07:59:49.843Z,95.75
2022-09-28T08:00:34.693Z,92.84
2022-09-28T08:01:19.815Z,94.78
2022-09-28T08:02:04.781Z,92.53
2022-09-28T08:02:50.066Z,92.84
2022-09-28T08:03:34.895Z,92.84
2022-09-28T08:04:19.973Z,96.71
2022-09-28T08:05:05.140Z,98.65
2022-09-28T08:05:49.993Z,100.58
2022-09-28T08:06:35.757Z,99.61
2022-09-28T08:07:22.814Z,95.75
2022-09-28T08:08:05.773Z,95.75
2022-09-28T08:08:50.473Z,97.68
2022-09-28T08:09:35.577Z,98.65
2022-09-28T08:10:20.609Z,99.61
2022-09-28T08:11:05.793Z,101.55
2022-09-28T08:11:51.358Z,97.68
2022-09-28T08:12:35.809Z,93.81
2022-09-28T08:13:22.254Z,92.84
2022-09-28T08:14:05.932Z,93.81
2022-09-28T08:14:51.186Z,95.75
2022-09-28T08:15:36.129Z,95.75
2022-09-28T08:16:21.314Z,94.78
2022-09-28T08:17:06.340Z,95.75
2022-09-28T08:17:51.095Z,89.94
2022-09-28T08:18:36.050Z,90.91
2022-09-28T08:19:21.166Z,89.94
2022-09-28T08:20:06.503Z,93.81
2022-09-28T08:20:51.861Z,92.84
2022-09-28T08:21:36.479Z,95.75
2022-09-28T08:22:21.532Z,95.75
2022-09-28T08:23:07.002Z,95.75
2022-09-28T08:23:51.475Z,93.81
2022-09-28T08:24:36.348Z,93.81
2022-09-28T08:25:21.760Z,93.81
2022-09-28T08:26:06.816Z,89.94
2022-09-28T08:26:51.570Z,91.88
2022-09-28T08:27:36.935Z,91.88
2022-09-28T08:28:21.783Z,91.88
2022-09-28T08:29:06.840Z,91.88
2022-09-28T08:29:51.892Z,92.84
2022-09-28T08:30:36.469Z,92.84
2022-09-28T08:31:21.972Z,90.91
2022-09-28T08:32:07.194Z,92.84
2022-09-28T08:32:52.120Z,93.81
2022-09-28T08:33:37.177Z,92.84
2022-09-28T08:34:22.132Z,95.75
2022-09-28T08:35:07.185Z,89.94
2022-09-28T08:35:52.244Z,147.00
2022-09-28T08:36:37.425Z,141.20
2022-09-28T08:37:22.556Z,140.23
2022-09-28T08:38:07.620Z,144.10
2022-09-28T08:38:52.364Z,146.04
2022-09-28T08:39:37.524Z,140.23
2022-09-28T08:40:22.774Z,143.14
2022-09-28T08:41:07.941Z,143.14
2022-09-28T08:41:52.592Z,133.46
2022-09-28T08:42:37.818Z,105.42
2022-09-28T08:43:22.805Z,97.68
2022-09-28T08:44:08.043Z,101.55
2022-09-28T08:44:53.530Z,100.58
2022-09-28T08:45:38.003Z,98.65
2022-09-28T08:46:25.178Z,99.61
2022-09-28T08:47:08.343Z,102.52
2022-09-28T08:47:53.194Z,98.65
2022-09-28T08:48:38.211Z,110.25
2022-09-28T08:49:25.779Z,109.29
2022-09-28T08:50:08.530Z,110.25
2022-09-28T08:50:53.574Z,140.23
2022-09-28T08:51:38.358Z,122.83
2022-09-28T08:52:23.758Z,112.19
2022-09-28T08:53:08.640Z,112.19
2022-09-28T08:53:53.703Z,110.25
2022-09-28T08:54:38.548Z,109.29
2022-09-28T08:55:23.505Z,109.29
2022-09-28T08:56:08.764Z,106.98
2022-09-28T08:56:53.619Z,108.51
2022-09-28T08:57:38.577Z,107.95
2022-09-28T08:58:23.729Z,105.63
2022-09-28T08:59:09.440Z,108.51
2022-09-28T08:59:53.958Z,105.63
2022-09-28T09:00:38.671Z,105.06
2022-09-28T09:01:24.125Z,105.06
2022-09-28T09:02:09.188Z,106.98
2022-09-28T09:02:53.879Z,106.02
2022-09-28T09:03:39.222Z,167.70
2022-09-28T09:04:24.385Z,316.13
2022-09-28T09:05:09.238Z,321.91
2022-09-28T09:05:54.111Z,171.56
2022-09-28T09:06:39.351Z,142.64
2022-09-28T09:07:24.248Z,151.32
2022-09-28T09:08:09.774Z,141.68
2022-09-28T09:08:54.416Z,150.35
2022-09-28T09:09:39.475Z,149.39
2022-09-28T09:10:24.589Z,158.06
2022-09-28T09:11:09.993Z,149.39
2022-09-28T09:11:54.850Z,149.39
2022-09-28T09:12:39.615Z,167.70
2022-09-28T09:13:24.686Z,104.09
2022-09-28T09:14:09.608Z,105.06
2022-09-28T09:14:54.783Z,103.70
2022-09-28T09:15:40.540Z,104.67
2022-09-28T09:16:25.011Z,107.55
2022-09-28T09:17:10.056Z,106.59
2022-09-28T09:17:54.789Z,102.16
2022-09-28T09:18:39.843Z,139.75
2022-09-28T09:19:26.235Z,104.09
2022-09-28T09:20:09.958Z,102.16
2022-09-28T09:20:55.026Z,101.20
2022-09-28T09:21:39.868Z,100.24
2022-09-28T09:22:25.372Z,98.31
2022-09-28T09:23:10.383Z,99.27
2022-09-28T09:23:55.446Z,97.94
2022-09-28T09:24:40.294Z,102.74
2022-09-28T09:25:25.458Z,103.70
2022-09-28T09:26:10.370Z,104.67
2022-09-28T09:26:55.904Z,106.59
2022-09-28T09:27:40.425Z,105.63
2022-09-28T09:28:25.817Z,96.98